AAL227 KTPA-KMIA
Flight info
| Callsign | AAL227 |
|---|---|
| Flight time | 0h 39m |
| Altitude | 25000 |
| Route | GANDY8 SABEE FROGZ5 |
| Aircraft | B738/M-SDE2E3FGHIRWXY/LB1 |
Departure
| Time | 2026-05-05 00:29 |
|---|---|
| Airport | Tampa International Airport (KTPA) |
Arrival
| Time | 2026-05-05 01:08 |
|---|---|
| Airport | Miami International Airport (KMIA) |
| Time | Latitude | Longitude | Altitude | Speed | Heading |
|---|---|---|---|---|---|
| 2026-05-04 23:33 | 27.97681 | -82.53886 | 34 ft | 0 kts | 57° |
| 2026-05-05 00:07 | 27.97678 | -82.53891 | 34 ft | 4 kts | 58° |
| 2026-05-05 00:07 | 27.97665 | -82.53918 | 34 ft | 4 kts | 65° |
| 2026-05-05 00:07 | 27.97656 | -82.53946 | 34 ft | 4 kts | 80° |
| 2026-05-05 00:07 | 27.97657 | -82.53974 | 34 ft | 4 kts | 120° |
| 2026-05-05 00:08 | 27.97664 | -82.53984 | 34 ft | 0 kts | 148° |
| 2026-05-05 00:17 | 27.97664 | -82.53983 | 34 ft | 0 kts | 148° |
| 2026-05-05 00:18 | 27.97663 | -82.53983 | 34 ft | 0 kts | 148° |
| 2026-05-05 00:21 | 27.97652 | -82.53979 | 34 ft | 1 kts | 173° |
| 2026-05-05 00:21 | 27.97643 | -82.53978 | 34 ft | 1 kts | 175° |
| 2026-05-05 00:21 | 27.97634 | -82.53978 | 34 ft | 1 kts | 175° |
| 2026-05-05 00:21 | 27.97632 | -82.53977 | 34 ft | 0 kts | 176° |
| 2026-05-05 00:23 | 27.97587 | -82.54014 | 34 ft | 17 kts | 238° |
| 2026-05-05 00:24 | 27.97515 | -82.54065 | 34 ft | 17 kts | 187° |
| 2026-05-05 00:24 | 27.97353 | -82.54075 | 34 ft | 23 kts | 180° |
| 2026-05-05 00:24 | 27.97201 | -82.54081 | 34 ft | 21 kts | 181° |
| 2026-05-05 00:24 | 27.97056 | -82.54084 | 34 ft | 20 kts | 182° |
| 2026-05-05 00:25 | 27.96918 | -82.54090 | 34 ft | 19 kts | 181° |
| 2026-05-05 00:25 | 27.96786 | -82.54092 | 34 ft | 18 kts | 181° |
| 2026-05-05 00:25 | 27.96660 | -82.54095 | 34 ft | 18 kts | 181° |
| 2026-05-05 00:25 | 27.96542 | -82.54101 | 34 ft | 17 kts | 182° |
| 2026-05-05 00:26 | 27.96429 | -82.54106 | 34 ft | 16 kts | 181° |
| 2026-05-05 00:26 | 27.96351 | -82.54117 | 34 ft | 1 kts | 225° |
| 2026-05-05 00:27 | 27.96342 | -82.54138 | 34 ft | 11 kts | 253° |
| 2026-05-05 00:27 | 27.96343 | -82.54233 | 34 ft | 7 kts | 311° |
| 2026-05-05 00:28 | 27.96407 | -82.54232 | 34 ft | 24 kts | 4° |
| 2026-05-05 00:28 | 27.96834 | -82.54215 | 34 ft | 97 kts | 360° |
| 2026-05-05 00:28 | 27.97728 | -82.54188 | 58 ft | 156 kts | 1° |
| 2026-05-05 00:28 | 27.98917 | -82.54148 | 532 ft | 182 kts | 2° |
| 2026-05-05 00:29 | 28.00231 | -82.54077 | 1291 ft | 196 kts | 2° |
| 2026-05-05 00:29 | 28.01618 | -82.53997 | 2063 ft | 202 kts | 3° |
| 2026-05-05 00:29 | 28.03034 | -82.53950 | 2920 ft | 206 kts | 1° |
| 2026-05-05 00:29 | 28.04496 | -82.54322 | 3559 ft | 229 kts | 341° |
| 2026-05-05 00:30 | 28.05855 | -82.55425 | 4113 ft | 255 kts | 315° |
| 2026-05-05 00:30 | 28.06702 | -82.57242 | 4955 ft | 269 kts | 288° |
| 2026-05-05 00:30 | 28.06801 | -82.59381 | 5863 ft | 279 kts | 263° |
| 2026-05-05 00:30 | 28.06121 | -82.61421 | 6789 ft | 285 kts | 239° |
| 2026-05-05 00:31 | 28.04746 | -82.63052 | 7672 ft | 292 kts | 215° |
| 2026-05-05 00:31 | 28.02883 | -82.63972 | 8521 ft | 296 kts | 192° |
| 2026-05-05 00:31 | 28.00826 | -82.64039 | 9365 ft | 299 kts | 171° |
| 2026-05-05 00:31 | 27.98812 | -82.63446 | 10242 ft | 301 kts | 163° |
| 2026-05-05 00:32 | 27.96754 | -82.62869 | 10970 ft | 310 kts | 167° |
| 2026-05-05 00:32 | 27.94590 | -82.62301 | 11387 ft | 330 kts | 167° |
| 2026-05-05 00:32 | 27.92290 | -82.61684 | 11742 ft | 350 kts | 167° |
| 2026-05-05 00:32 | 27.89878 | -82.61026 | 12270 ft | 362 kts | 167° |
| 2026-05-05 00:33 | 27.87414 | -82.60348 | 13013 ft | 367 kts | 167° |
| 2026-05-05 00:33 | 27.84921 | -82.59659 | 13753 ft | 371 kts | 167° |
| 2026-05-05 00:33 | 27.82401 | -82.58961 | 14503 ft | 375 kts | 167° |
| 2026-05-05 00:33 | 27.79842 | -82.58253 | 15217 ft | 380 kts | 167° |
| 2026-05-05 00:34 | 27.77267 | -82.57507 | 15946 ft | 384 kts | 164° |
| 2026-05-05 00:34 | 27.74730 | -82.56497 | 16615 ft | 389 kts | 159° |
| 2026-05-05 00:34 | 27.72232 | -82.55293 | 17296 ft | 392 kts | 157° |
| 2026-05-05 00:34 | 27.69744 | -82.54077 | 17922 ft | 397 kts | 158° |
| 2026-05-05 00:35 | 27.67188 | -82.52850 | 18572 ft | 401 kts | 158° |
| 2026-05-05 00:35 | 27.64610 | -82.51624 | 19219 ft | 404 kts | 158° |
| 2026-05-05 00:35 | 27.62004 | -82.50388 | 19850 ft | 407 kts | 158° |
| 2026-05-05 00:35 | 27.59381 | -82.49146 | 20444 ft | 411 kts | 158° |
| 2026-05-05 00:36 | 27.56735 | -82.47881 | 21027 ft | 415 kts | 157° |
| 2026-05-05 00:36 | 27.54130 | -82.46446 | 21642 ft | 417 kts | 153° |
| 2026-05-05 00:36 | 27.51587 | -82.44880 | 22381 ft | 415 kts | 152° |
| 2026-05-05 00:36 | 27.49074 | -82.43300 | 23126 ft | 413 kts | 153° |
| 2026-05-05 00:37 | 27.46555 | -82.41759 | 23813 ft | 412 kts | 153° |
| 2026-05-05 00:37 | 27.44030 | -82.40233 | 24503 ft | 410 kts | 153° |
| 2026-05-05 00:37 | 27.41514 | -82.38720 | 24967 ft | 412 kts | 154° |
| 2026-05-05 00:37 | 27.38978 | -82.37199 | 25202 ft | 414 kts | 154° |
| 2026-05-05 00:38 | 27.36414 | -82.35662 | 25244 ft | 423 kts | 154° |
| 2026-05-05 00:38 | 27.33781 | -82.34087 | 25252 ft | 435 kts | 154° |
| 2026-05-05 00:38 | 27.31091 | -82.32472 | 25252 ft | 446 kts | 154° |
| 2026-05-05 00:38 | 27.28305 | -82.30792 | 25252 ft | 456 kts | 154° |
| 2026-05-05 00:39 | 27.25477 | -82.29092 | 25250 ft | 465 kts | 154° |
| 2026-05-05 00:39 | 27.22596 | -82.27363 | 25249 ft | 474 kts | 154° |
| 2026-05-05 00:39 | 27.19662 | -82.25605 | 25248 ft | 481 kts | 154° |
| 2026-05-05 00:39 | 27.16728 | -82.23847 | 25247 ft | 486 kts | 154° |
| 2026-05-05 00:40 | 27.13741 | -82.22059 | 25246 ft | 486 kts | 154° |
| 2026-05-05 00:40 | 27.10685 | -82.20442 | 25244 ft | 483 kts | 160° |
| 2026-05-05 00:40 | 27.07530 | -82.19169 | 25243 ft | 481 kts | 166° |
| 2026-05-05 00:40 | 27.04293 | -82.18237 | 25243 ft | 479 kts | 170° |
| 2026-05-05 00:41 | 27.01027 | -82.17530 | 25242 ft | 477 kts | 173° |
| 2026-05-05 00:41 | 26.97750 | -82.16936 | 25242 ft | 477 kts | 173° |
| 2026-05-05 00:41 | 26.94477 | -82.16329 | 25241 ft | 477 kts | 173° |
| 2026-05-05 00:41 | 26.91210 | -82.15711 | 25241 ft | 476 kts | 173° |
| 2026-05-05 00:42 | 26.87942 | -82.15087 | 25238 ft | 476 kts | 173° |
| 2026-05-05 00:42 | 26.84679 | -82.14462 | 25237 ft | 475 kts | 173° |
| 2026-05-05 00:42 | 26.81419 | -82.13838 | 25236 ft | 474 kts | 173° |
| 2026-05-05 00:42 | 26.78164 | -82.13215 | 25234 ft | 474 kts | 173° |
| 2026-05-05 00:43 | 26.74913 | -82.12589 | 25232 ft | 474 kts | 173° |
| 2026-05-05 00:43 | 26.71721 | -82.11880 | 25230 ft | 474 kts | 171° |
| 2026-05-05 00:43 | 26.68459 | -82.11069 | 25228 ft | 474 kts | 171° |
| 2026-05-05 00:43 | 26.65279 | -82.10304 | 25224 ft | 473 kts | 171° |
| 2026-05-05 00:44 | 26.63103 | -82.09790 | 25223 ft | 473 kts | 172° |
| 2026-05-05 00:44 | 26.58839 | -82.08791 | 25220 ft | 472 kts | 172° |
| 2026-05-05 00:44 | 26.55659 | -82.07815 | 25214 ft | 476 kts | 164° |
| 2026-05-05 00:44 | 26.52626 | -82.06278 | 25211 ft | 480 kts | 155° |
| 2026-05-05 00:45 | 26.49885 | -82.04267 | 25207 ft | 463 kts | 147° |
| 2026-05-05 00:45 | 26.48215 | -82.02757 | 25206 ft | 452 kts | 143° |
| 2026-05-05 00:45 | 26.45925 | -82.00441 | 25204 ft | 436 kts | 141° |
| 2026-05-05 00:45 | 26.43791 | -81.98189 | 25202 ft | 419 kts | 142° |
| 2026-05-05 00:46 | 26.40967 | -81.95294 | 24903 ft | 407 kts | 142° |
| 2026-05-05 00:46 | 26.39584 | -81.93891 | 24708 ft | 402 kts | 142° |
| 2026-05-05 00:46 | 26.37517 | -81.91807 | 24286 ft | 399 kts | 142° |
| 2026-05-05 00:46 | 26.35455 | -81.89735 | 23863 ft | 396 kts | 143° |
| 2026-05-05 00:47 | 26.33415 | -81.87687 | 23445 ft | 394 kts | 142° |
| 2026-05-05 00:47 | 26.31382 | -81.85649 | 23026 ft | 391 kts | 143° |
| 2026-05-05 00:47 | 26.29365 | -81.83627 | 22611 ft | 389 kts | 142° |
| 2026-05-05 00:47 | 26.27361 | -81.81619 | 22198 ft | 386 kts | 142° |
| 2026-05-05 00:48 | 26.25404 | -81.79580 | 21785 ft | 386 kts | 138° |
| 2026-05-05 00:48 | 26.23713 | -81.77309 | 21385 ft | 387 kts | 129° |
| 2026-05-05 00:48 | 26.22281 | -81.74770 | 20976 ft | 387 kts | 122° |
| 2026-05-05 00:48 | 26.21055 | -81.72103 | 20568 ft | 386 kts | 119° |
| 2026-05-05 00:49 | 26.19931 | -81.69395 | 20164 ft | 384 kts | 118° |
| 2026-05-05 00:49 | 26.18807 | -81.66707 | 19765 ft | 382 kts | 118° |
| 2026-05-05 00:49 | 26.17670 | -81.64045 | 19366 ft | 379 kts | 119° |
| 2026-05-05 00:49 | 26.16528 | -81.61403 | 18971 ft | 376 kts | 119° |
| 2026-05-05 00:50 | 26.15393 | -81.58792 | 18580 ft | 374 kts | 119° |
| 2026-05-05 00:50 | 26.14260 | -81.56196 | 18190 ft | 371 kts | 119° |
| 2026-05-05 00:50 | 26.13134 | -81.53615 | 17757 ft | 370 kts | 119° |
| 2026-05-05 00:50 | 26.12004 | -81.51032 | 17247 ft | 371 kts | 118° |
| 2026-05-05 00:51 | 26.10879 | -81.48459 | 16846 ft | 369 kts | 118° |
| 2026-05-05 00:51 | 26.09760 | -81.45902 | 16452 ft | 366 kts | 118° |
| 2026-05-05 00:51 | 26.08646 | -81.43359 | 16060 ft | 364 kts | 118° |
| 2026-05-05 00:51 | 26.07542 | -81.40837 | 15675 ft | 361 kts | 118° |
| 2026-05-05 00:52 | 26.06453 | -81.38333 | 15293 ft | 359 kts | 117° |
| 2026-05-05 00:52 | 26.05376 | -81.35839 | 14913 ft | 356 kts | 117° |
| 2026-05-05 00:52 | 26.04302 | -81.33369 | 14534 ft | 354 kts | 117° |
| 2026-05-05 00:52 | 26.03234 | -81.30917 | 14157 ft | 351 kts | 117° |
| 2026-05-05 00:53 | 26.02170 | -81.28480 | 13781 ft | 349 kts | 117° |
| 2026-05-05 00:53 | 26.01113 | -81.26064 | 13409 ft | 347 kts | 116° |
| 2026-05-05 00:53 | 26.00060 | -81.23657 | 13036 ft | 344 kts | 116° |
| 2026-05-05 00:53 | 25.99029 | -81.21303 | 12668 ft | 342 kts | 116° |
| 2026-05-05 00:54 | 25.97979 | -81.18904 | 12291 ft | 340 kts | 116° |
| 2026-05-05 00:54 | 25.96946 | -81.16547 | 11917 ft | 338 kts | 116° |
| 2026-05-05 00:54 | 25.95919 | -81.14204 | 11546 ft | 336 kts | 116° |
| 2026-05-05 00:54 | 25.94915 | -81.11909 | 11184 ft | 334 kts | 116° |
| 2026-05-05 00:55 | 25.93902 | -81.09595 | 10821 ft | 331 kts | 116° |
| 2026-05-05 00:55 | 25.92917 | -81.07349 | 10400 ft | 316 kts | 116° |
| 2026-05-05 00:55 | 25.91984 | -81.05222 | 10150 ft | 297 kts | 116° |
| 2026-05-05 00:55 | 25.91098 | -81.03191 | 9853 ft | 289 kts | 115° |
| 2026-05-05 00:56 | 25.90286 | -81.01170 | 9648 ft | 284 kts | 112° |
| 2026-05-05 00:56 | 25.89537 | -80.99148 | 9394 ft | 281 kts | 111° |
| 2026-05-05 00:56 | 25.88827 | -80.97135 | 9124 ft | 279 kts | 111° |
| 2026-05-05 00:56 | 25.88075 | -80.95152 | 8825 ft | 278 kts | 113° |
| 2026-05-05 00:57 | 25.87290 | -80.93194 | 8540 ft | 276 kts | 114° |
| 2026-05-05 00:57 | 25.86523 | -80.91241 | 8256 ft | 275 kts | 112° |
| 2026-05-05 00:57 | 25.85791 | -80.89317 | 8153 ft | 266 kts | 112° |
| 2026-05-05 00:57 | 25.85082 | -80.87461 | 8030 ft | 258 kts | 112° |
| 2026-05-05 00:58 | 25.84387 | -80.85641 | 7965 ft | 254 kts | 112° |
| 2026-05-05 00:58 | 25.83698 | -80.83845 | 7903 ft | 254 kts | 112° |
| 2026-05-05 00:58 | 25.83014 | -80.82068 | 7732 ft | 251 kts | 112° |
| 2026-05-05 00:58 | 25.82325 | -80.80282 | 7430 ft | 252 kts | 112° |
| 2026-05-05 00:59 | 25.81635 | -80.78492 | 7291 ft | 246 kts | 112° |
| 2026-05-05 00:59 | 25.80963 | -80.76768 | 7092 ft | 242 kts | 112° |
| 2026-05-05 00:59 | 25.80307 | -80.75052 | 6859 ft | 240 kts | 111° |
| 2026-05-05 00:59 | 25.79664 | -80.73376 | 6615 ft | 239 kts | 111° |
| 2026-05-05 01:00 | 25.79010 | -80.71680 | 6368 ft | 238 kts | 111° |
| 2026-05-05 01:00 | 25.78357 | -80.69991 | 6107 ft | 237 kts | 111° |
| 2026-05-05 01:00 | 25.77709 | -80.68312 | 5861 ft | 236 kts | 111° |
| 2026-05-05 01:00 | 25.77216 | -80.66592 | 5605 ft | 233 kts | 99° |
| 2026-05-05 01:01 | 25.77091 | -80.64821 | 5378 ft | 228 kts | 87° |
| 2026-05-05 01:01 | 25.77176 | -80.63072 | 5142 ft | 226 kts | 82° |
| 2026-05-05 01:01 | 25.77290 | -80.61341 | 4904 ft | 224 kts | 83° |
| 2026-05-05 01:01 | 25.77383 | -80.59638 | 4776 ft | 217 kts | 83° |
| 2026-05-05 01:02 | 25.77479 | -80.57998 | 4641 ft | 210 kts | 82° |
| 2026-05-05 01:02 | 25.77563 | -80.56397 | 4413 ft | 207 kts | 83° |
| 2026-05-05 01:02 | 25.77637 | -80.54817 | 4159 ft | 203 kts | 83° |
| 2026-05-05 01:02 | 25.77706 | -80.53274 | 3874 ft | 198 kts | 82° |
| 2026-05-05 01:03 | 25.77770 | -80.51768 | 3606 ft | 192 kts | 82° |
| 2026-05-05 01:03 | 25.77832 | -80.50309 | 3348 ft | 186 kts | 81° |
| 2026-05-05 01:03 | 25.77890 | -80.48921 | 3113 ft | 178 kts | 81° |
| 2026-05-05 01:03 | 25.77946 | -80.47587 | 2880 ft | 168 kts | 81° |
| 2026-05-05 01:04 | 25.77997 | -80.46338 | 2681 ft | 156 kts | 81° |
| 2026-05-05 01:04 | 25.78092 | -80.44056 | 2266 ft | 142 kts | 81° |
| 2026-05-05 01:04 | 25.78136 | -80.42988 | 2111 ft | 137 kts | 81° |
| 2026-05-05 01:05 | 25.78181 | -80.41912 | 1920 ft | 142 kts | 81° |
| 2026-05-05 01:05 | 25.78227 | -80.40811 | 1724 ft | 142 kts | 81° |
| 2026-05-05 01:05 | 25.78272 | -80.39709 | 1533 ft | 144 kts | 82° |
| 2026-05-05 01:05 | 25.78319 | -80.38589 | 1337 ft | 148 kts | 85° |
| 2026-05-05 01:06 | 25.78366 | -80.37448 | 1141 ft | 147 kts | 85° |
| 2026-05-05 01:06 | 25.78413 | -80.36325 | 948 ft | 145 kts | 84° |
| 2026-05-05 01:06 | 25.78460 | -80.35181 | 760 ft | 151 kts | 85° |
| 2026-05-05 01:06 | 25.78508 | -80.34027 | 548 ft | 147 kts | 84° |
| 2026-05-05 01:07 | 25.78555 | -80.32893 | 355 ft | 149 kts | 85° |
| 2026-05-05 01:07 | 25.78599 | -80.31754 | 149 ft | 144 kts | 85° |
| 2026-05-05 01:07 | 25.78644 | -80.30687 | 19 ft | 132 kts | 84° |
| 2026-05-05 01:07 | 25.78684 | -80.29791 | 17 ft | 91 kts | 88° |
| 2026-05-05 01:08 | 25.78713 | -80.29323 | 16 ft | 32 kts | 77° |
| 2026-05-05 01:08 | 25.78784 | -80.29177 | 16 ft | 16 kts | 47° |
| 2026-05-05 01:08 | 25.78823 | -80.29068 | 16 ft | 15 kts | 84° |
| 2026-05-05 01:08 | 25.78836 | -80.28977 | 16 ft | 10 kts | 74° |
| 2026-05-05 01:09 | 25.78857 | -80.28897 | 16 ft | 11 kts | 66° |
| 2026-05-05 01:09 | 25.78919 | -80.28868 | 16 ft | 10 kts | 356° |
| 2026-05-05 01:09 | 25.79005 | -80.28874 | 16 ft | 15 kts | 358° |
| 2026-05-05 01:09 | 25.79103 | -80.28878 | 16 ft | 14 kts | 358° |
| 2026-05-05 01:10 | 25.79181 | -80.28880 | 16 ft | 8 kts | 358° |
| 2026-05-05 01:10 | 25.79281 | -80.28881 | 16 ft | 20 kts | 358° |
| 2026-05-05 01:10 | 25.79419 | -80.28888 | 16 ft | 19 kts | 358° |
| 2026-05-05 01:10 | 25.79551 | -80.28895 | 16 ft | 18 kts | 357° |
| 2026-05-05 01:11 | 25.79676 | -80.28901 | 16 ft | 18 kts | 358° |
| 2026-05-05 01:11 | 25.79794 | -80.28905 | 16 ft | 17 kts | 359° |
| 2026-05-05 01:11 | 25.79905 | -80.28908 | 16 ft | 15 kts | 19° |
| 2026-05-05 01:11 | 25.79933 | -80.28805 | 16 ft | 14 kts | 87° |
| 2026-05-05 01:12 | 25.79938 | -80.28701 | 16 ft | 13 kts | 87° |
| 2026-05-05 01:12 | 25.79943 | -80.28595 | 16 ft | 13 kts | 86° |
| 2026-05-05 01:12 | 25.79948 | -80.28495 | 16 ft | 13 kts | 86° |
| 2026-05-05 01:12 | 25.79909 | -80.28428 | 16 ft | 12 kts | 188° |
| 2026-05-05 01:13 | 25.79852 | -80.28458 | 16 ft | 3 kts | 212° |
| 2026-05-05 01:13 | 25.79832 | -80.28464 | 16 ft | 2 kts | 181° |
| 2026-05-05 01:13 | 25.79825 | -80.28463 | 16 ft | 0 kts | 177° |
| 2026-05-05 01:13 | 25.79824 | -80.28463 | 16 ft | 0 kts | 178° |